Time;durP1;ratioP1;P1;durP2;ratioP2;P2;SDS_P1;SDS_P2;PMS_P1;PMS_P2;Temp;Humidity;BMP_temperature;BMP_pressure;BME280_temperature;BME280_humidity;BME280_pressure;Samples;Min_cycle;Max_cycle;Signal;HPM_P1;HPM_P2
2023/01/02 00:00:37;;;;;;;15.07;8.88;;;;;;;11.85;100.00;100425.84;6228898;23;20048;-94
2023/01/02 00:03:20;;;;;;;14.88;7.85;;;;;;;11.89;100.00;100438.91;6217648;23;20047;-94
2023/01/02 00:05:57;;;;;;;18.52;8.05;;;;;;;11.87;100.00;100442.56;6238845;23;20028;-94
2023/01/02 00:08:42;;;;;;;14.23;7.82;;;;;;;11.94;100.00;100441.31;6233056;23;20032;-93
2023/01/02 00:11:14;;;;;;;16.98;7.68;;;;;;;11.94;100.00;100443.97;6229180;23;20027;-91
2023/01/02 00:13:44;;;;;;;17.50;7.25;;;;;;;11.83;100.00;100433.03;6237265;23;20027;-92
2023/01/02 00:16:14;;;;;;;12.45;7.47;;;;;;;11.93;100.00;100439.59;6237324;23;20027;-93
2023/01/02 00:18:47;;;;;;;10.43;7.03;;;;;;;11.76;100.00;100407.78;6239604;23;20025;-94
2023/01/02 00:21:28;;;;;;;15.23;6.97;;;;;;;11.84;100.00;100424.13;6237546;23;20032;-93
2023/01/02 00:24:09;;;;;;;12.05;7.03;;;;;;;11.83;100.00;100409.16;6216875;23;20024;-94
2023/01/02 00:26:49;;;;;;;13.32;7.07;;;;;;;11.71;100.00;100391.19;6239709;23;20116;-93
2023/01/02 00:29:36;;;;;;;10.77;7.10;;;;;;;11.42;100.00;100344.97;6230116;23;20021;-93
2023/01/02 00:32:07;;;;;;;11.93;6.60;;;;;;;11.62;100.00;100379.28;6230153;23;20027;-93
2023/01/02 00:34:41;;;;;;;14.52;7.13;;;;;;;11.64;100.00;100379.19;6191386;23;20044;-93
2023/01/02 00:37:15;;;;;;;11.10;6.63;;;;;;;11.56;100.00;100368.97;6169414;23;20304;-93
2023/01/02 00:39:52;;;;;;;11.32;6.50;;;;;;;11.38;100.00;100344.25;6193531;23;20021;-93
2023/01/02 00:42:21;;;;;;;10.48;7.00;;;;;;;11.75;100.00;100406.03;6193974;23;20021;-93
2023/01/02 00:44:55;;;;;;;8.57;6.70;;;;;;;11.53;100.00;100377.06;6192742;23;20039;-94
2023/01/02 00:47:24;;;;;;;15.30;7.25;;;;;;;11.52;100.00;100367.41;6153333;23;20021;-95
2023/01/02 00:50:08;;;;;;;10.73;6.57;;;;;;;11.45;100.00;100350.97;6191108;23;20021;-96
2023/01/02 00:52:53;;;;;;;11.07;6.13;;;;;;;11.49;100.00;100355.16;6189021;23;20021;-94
2023/01/02 00:55:39;;;;;;;13.48;6.55;;;;;;;11.48;100.00;100357.91;6190947;23;20036;-94
2023/01/02 00:58:24;;;;;;;10.48;6.68;;;;;;;11.43;100.00;100344.88;6188966;23;20380;-95
2023/01/02 01:00:54;;;;;;;11.20;6.10;;;;;;;11.50;100.00;100359.53;6191117;23;20029;-94
2023/01/02 01:03:37;;;;;;;12.77;6.38;;;;;;;11.70;100.00;100394.78;6201101;23;20052;-94
2023/01/02 01:06:20;;;;;;;13.93;6.75;;;;;;;11.38;100.00;100333.63;6206300;23;20025;-95
2023/01/02 01:09:03;;;;;;;10.63;5.75;;;;;;;11.39;100.00;100322.09;6194196;23;20421;-94
2023/01/02 01:11:54;;;;;;;11.27;6.30;;;;;;;11.76;100.00;100386.53;6192085;23;20075;-93
2023/01/02 01:14:25;;;;;;;10.35;5.60;;;;;;;11.43;100.00;100321.03;6164037;23;20040;-94
2023/01/02 01:16:53;;;;;;;10.00;5.95;;;;;;;11.79;100.00;100386.41;6187890;23;20037;-95
2023/01/02 01:19:31;;;;;;;11.65;5.50;;;;;;;11.74;100.00;100377.78;6189034;23;20068;-95
2023/01/02 01:22:09;;;;;;;13.98;6.07;;;;;;;11.71;100.00;100349.59;6136752;23;20029;-95
2023/01/02 01:24:42;;;;;;;12.48;5.70;;;;;;;11.82;100.00;100371.16;6188506;23;20087;-95
2023/01/02 01:27:16;;;;;;;8.70;5.28;;;;;;;11.86;100.00;100375.38;6191884;23;20025;-95
2023/01/02 01:29:55;;;;;;;9.10;5.75;;;;;;;11.57;100.00;100328.25;6208202;23;20013;-94
2023/01/02 01:35:01;;;;;;;11.38;5.22;;;;;;;11.81;100.00;100371.22;6172653;23;20028;-95
2023/01/02 01:37:32;;;;;;;9.23;5.25;;;;;;;11.81;100.00;100373.88;6192745;23;20025;-93
2023/01/02 01:40:20;;;;;;;12.52;5.60;;;;;;;11.79;100.00;100374.00;6203875;23;20032;-93
2023/01/02 01:42:49;;;;;;;10.85;5.20;;;;;;;11.61;100.00;100351.03;6201834;23;20032;-93
2023/01/02 01:45:44;;;;;;;8.73;5.05;;;;;;;11.81;100.00;100387.16;6204319;23;20017;-94
2023/01/02 01:48:15;;;;;;;9.07;5.30;;;;;;;11.30;100.00;100308.47;6179756;23;20017;-94
2023/01/02 01:50:48;;;;;;;9.43;5.43;;;;;;;11.63;100.00;100358.91;6202937;23;20089;-94
2023/01/02 01:53:30;;;;;;;14.60;5.55;;;;;;;11.72;100.00;100358.44;6193607;23;20025;-94
2023/01/02 01:56:20;;;;;;;9.20;5.40;;;;;;;11.80;100.00;100385.47;6191686;23;20021;-92
2023/01/02 01:59:02;;;;;;;8.50;5.25;;;;;;;11.76;100.00;100370.63;6190099;23;20032;-94
2023/01/02 02:01:43;;;;;;;8.18;5.32;;;;;;;11.11;100.00;100274.97;6190938;23;20028;-94
2023/01/02 02:04:44;;;;;;;10.52;5.10;;;;;;;11.49;100.00;100341.91;6190786;23;20041;-93
2023/01/02 02:07:18;;;;;;;13.05;5.75;;;;;;;11.36;100.00;100326.69;6189658;23;20017;-93
2023/01/02 02:10:10;;;;;;;13.90;5.95;;;;;;;11.63;100.00;100374.81;6166198;23;20025;-93
2023/01/02 02:12:44;;;;;;;10.65;5.65;;;;;;;11.42;100.00;100342.31;6191176;23;20037;-93
2023/01/02 02:15:20;;;;;;;9.30;5.70;;;;;;;11.47;100.00;100366.81;6191045;23;20225;-94
2023/01/02 02:18:33;;;;;;;11.07;5.75;;;;;;;11.53;100.00;100383.25;6167721;23;20120;-94
2023/01/02 02:21:22;;;;;;;13.93;5.95;;;;;;;11.51;100.00;100381.59;6191453;23;20021;-93
2023/01/02 02:24:26;;;;;;;10.07;5.50;;;;;;;11.48;100.00;100369.38;6191982;23;20040;-94
2023/01/02 02:27:37;;;;;;;12.32;6.28;;;;;;;11.43;100.00;100360.78;6189999;23;20021;-94
2023/01/02 02:30:33;;;;;;;11.98;5.90;;;;;;;11.36;100.00;100366.47;6169374;23;20017;-94
2023/01/02 02:39:40;;;;;;;13.30;6.93;;;;;;;11.10;100.00;100359.84;6199751;23;20057;-92
2023/01/02 02:43:04;;;;;;;13.30;6.82;;;;;;;11.01;100.00;100363.81;6210203;23;20024;-93
2023/01/02 02:46:31;;;;;;;13.63;6.85;;;;;;;10.94;100.00;100351.78;6207805;23;20017;-93
2023/01/02 02:49:39;;;;;;;13.00;7.20;;;;;;;10.87;100.00;100350.34;6098613;23;20009;-94
2023/01/02 02:52:39;;;;;;;12.80;7.10;;;;;;;10.87;100.00;100353.00;6187645;23;20021;-93
2023/01/02 02:55:34;;;;;;;14.85;7.50;;;;;;;10.86;100.00;100349.50;6204651;23;20001;-95
2023/01/02 02:58:08;;;;;;;13.77;7.28;;;;;;;10.77;100.00;100334.06;6204880;23;20096;-94
2023/01/02 03:01:13;;;;;;;13.30;8.27;;;;;;;10.77;100.00;100334.06;6193123;23;20057;-93
2023/01/02 03:04:01;;;;;;;14.70;6.95;;;;;;;10.76;100.00;100324.41;6198096;23;20021;-94
2023/01/02 03:07:07;;;;;;;17.73;7.50;;;;;;;10.82;100.00;100331.19;6192442;23;20017;-94
2023/01/02 03:10:15;;;;;;;14.95;7.65;;;;;;;10.82;100.00;100332.06;6198209;23;20095;-93
2023/01/02 03:13:10;;;;;;;14.98;7.53;;;;;;;10.69;100.00;100309.75;6200199;23;20032;-94
2023/01/02 03:15:59;;;;;;;14.00;7.57;;;;;;;10.88;100.00;100339.69;6204387;23;20103;-94
2023/01/02 03:18:54;;;;;;;17.55;7.13;;;;;;;10.82;100.00;100318.81;6207475;23;20013;-94
2023/01/02 03:22:11;;;;;;;14.30;7.20;;;;;;;10.91;100.00;100330.72;6213508;23;20017;-93
2023/01/02 03:28:41;;;;;;;;;;;;;;;10.96;100.00;100336.66;6213295;23;20059;-93
2023/01/02 03:31:20;;;;;;;11.88;6.40;;;;;;;10.98;100.00;100328.66;6189409;23;19942;-94
2023/01/02 03:34:06;;;;;;;11.88;6.65;;;;;;;10.82;100.00;100288.81;6209950;23;20013;-93
2023/01/02 03:36:49;;;;;;;18.00;7.20;;;;;;;10.42;100.00;100213.97;6212917;23;20016;-96
2023/01/02 03:40:07;;;;;;;16.23;6.93;;;;;;;10.84;100.00;100279.00;6123013;23;20078;-94
2023/01/02 03:43:08;;;;;;;12.63;7.50;;;;;;;11.01;100.00;100302.00;6211741;23;20032;-93
2023/01/02 03:46:31;;;;;;;10.18;6.30;;;;;;;11.00;100.00;100308.25;6210784;23;20013;-93
2023/01/02 03:49:28;;;;;;;15.25;6.45;;;;;;;10.44;100.00;100233.28;6186340;23;20016;-94
2023/01/02 03:52:18;;;;;;;14.02;6.82;;;;;;;10.81;100.00;100309.16;6209192;23;20052;-94
2023/01/02 03:55:02;;;;;;;12.38;6.55;;;;;;;10.96;100.00;100339.31;6168667;23;20069;-94
2023/01/02 03:58:10;;;;;;;13.77;6.90;;;;;;;10.95;100.00;100356.16;6188802;23;20009;-94
2023/01/02 04:01:03;;;;;;;12.40;6.68;;;;;;;10.56;100.00;100295.38;6211603;23;20013;-94
2023/01/02 04:04:18;;;;;;;13.75;6.70;;;;;;;10.95;100.00;100355.28;6208294;23;20020;-93
2023/01/02 04:06:58;;;;;;;12.75;6.70;;;;;;;10.90;100.00;100358.16;6125789;23;20048;-93
2023/01/02 04:09:31;;;;;;;13.73;6.60;;;;;;;10.53;100.00;100300.84;6210729;23;20080;-93
2023/01/02 04:12:38;;;;;;;14.35;6.65;;;;;;;10.63;100.00;100311.81;6210929;23;20013;-93
2023/01/02 04:19:43;;;;;;;13.50;6.30;;;;;;;10.90;100.00;100348.41;6200571;23;20150;-93
2023/01/02 04:23:13;;;;;;;9.95;5.80;;;;;;;10.78;100.00;100316.38;6213055;23;20016;-93
2023/01/02 04:26:13;;;;;;;14.45;5.55;;;;;;;10.93;100.00;100330.66;6211197;23;20072;-94
2023/01/02 04:28:59;;;;;;;10.82;5.82;;;;;;;10.92;100.00;100321.84;6188686;23;20060;-95
2023/01/02 04:32:02;;;;;;;15.82;5.88;;;;;;;10.92;100.00;100329.81;6212839;23;20021;-95
2023/01/02 04:34:46;;;;;;;15.82;6.00;;;;;;;10.94;100.00;100335.03;6161081;23;20013;-94
2023/01/02 04:41:25;;;;;;;15.18;5.63;;;;;;;11.07;100.00;100346.72;6182840;23;20066;-93
2023/01/02 04:44:16;;;;;;;9.93;5.03;;;;;;;11.13;100.00;100347.28;6178740;23;20013;-93
2023/01/02 04:47:09;;;;;;;9.73;4.95;;;;;;;11.16;100.00;100355.09;6181709;23;20016;-93
2023/01/02 04:49:58;;;;;;;10.75;4.93;;;;;;;11.23;100.00;100371.53;6182619;23;20030;-94
2023/01/02 04:53:12;;;;;;;9.48;5.32;;;;;;;10.95;100.00;100331.44;6178113;23;20021;-94
2023/01/02 04:56:01;;;;;;;10.60;5.13;;;;;;;11.27;100.00;100378.41;6162860;23;20036;-93
2023/01/02 04:58:44;;;;;;;15.30;5.65;;;;;;;11.08;100.00;100343.16;6210322;23;20020;-94
2023/01/02 05:01:26;;;;;;;13.88;6.20;;;;;;;11.22;100.00;100370.66;6209141;23;20009;-93
2023/01/02 05:04:11;;;;;;;11.70;5.65;;;;;;;10.81;100.00;100327.69;6187680;23;20072;-94
2023/01/02 05:07:02;;;;;;;12.15;5.93;;;;;;;11.05;100.00;100367.13;6190574;23;20029;-94
2023/01/02 05:09:41;;;;;;;11.05;5.85;;;;;;;10.72;100.00;100317.53;6211611;23;20035;-94
2023/01/02 05:12:23;;;;;;;15.23;6.22;;;;;;;10.79;100.00;100334.84;6166814;23;20029;-94
2023/01/02 05:15:13;;;;;;;9.60;5.82;;;;;;;10.82;100.00;100358.53;6166552;23;20013;-94
2023/01/02 05:17:57;;;;;;;11.00;5.97;;;;;;;10.94;100.00;100377.41;6210654;23;20060;-94
2023/01/02 05:20:44;;;;;;;12.82;6.60;;;;;;;10.88;100.00;100365.31;6185903;23;20013;-94
2023/01/02 05:23:49;;;;;;;12.73;6.07;;;;;;;10.89;100.00;100367.88;6196011;23;20009;-94
2023/01/02 05:26:44;;;;;;;11.93;6.60;;;;;;;10.88;100.00;100366.16;6193443;23;20016;-93
2023/01/02 05:29:20;;;;;;;8.18;5.43;;;;;;;10.89;100.00;100372.31;6210675;23;20084;-94
2023/01/02 05:32:23;;;;;;;12.35;5.68;;;;;;;10.90;100.00;100387.28;6188019;23;20012;-94
2023/01/02 05:35:09;;;;;;;11.27;5.55;;;;;;;10.84;100.00;100356.69;6177231;23;20042;-94
2023/01/02 05:37:56;;;;;;;11.05;5.18;;;;;;;10.87;100.00;100347.69;6179187;23;20163;-94
2023/01/02 05:40:36;;;;;;;10.20;5.30;;;;;;;10.87;100.00;100348.56;6180642;23;20010;-95
2023/01/02 05:43:21;;;;;;;10.40;5.57;;;;;;;10.69;100.00;100312.41;6137776;23;20044;-95
2023/01/02 05:46:07;;;;;;;9.18;5.50;;;;;;;11.12;100.00;100379.16;6155943;23;20028;-94
2023/01/02 05:48:42;;;;;;;10.20;5.25;;;;;;;10.89;100.00;100352.00;6181306;23;20013;-93
2023/01/02 05:51:48;;;;;;;10.95;5.80;;;;;;;11.16;100.00;100397.50;6178842;23;20021;-93
2023/01/02 05:54:34;;;;;;;10.35;5.90;;;;;;;10.97;100.00;100380.78;6178834;23;20040;-93
2023/01/02 05:57:07;;;;;;;10.82;5.80;;;;;;;10.88;100.00;100365.31;6156673;23;20010;-94
2023/01/02 05:59:55;;;;;;;11.68;5.90;;;;;;;10.92;100.00;100388.09;6157893;23;20021;-94
2023/01/02 06:02:28;;;;;;;12.30;6.35;;;;;;;10.92;100.00;100392.53;6181161;23;20041;-94
2023/01/02 06:05:03;;;;;;;11.07;5.63;;;;;;;10.93;100.00;100400.41;6181134;23;20024;-94
2023/01/02 06:07:57;;;;;;;17.58;6.82;;;;;;;10.93;100.00;100408.34;6179806;23;20045;-93
2023/01/02 06:10:35;;;;;;;12.98;7.00;;;;;;;10.86;100.00;100402.47;6181277;23;20010;-93
2023/01/02 06:13:17;;;;;;;9.50;6.03;;;;;;;10.90;100.00;100413.78;6180816;23;20010;-93
2023/01/02 06:16:06;;;;;;;8.63;5.78;;;;;;;10.79;100.00;100387.81;6157301;23;20014;-94
2023/01/02 06:18:55;;;;;;;9.95;5.68;;;;;;;10.92;100.00;100408.41;6181721;23;20009;-93
2023/01/02 06:21:32;;;;;;;15.73;5.93;;;;;;;10.94;100.00;100407.41;6183494;23;20041;-93
2023/01/02 06:24:17;;;;;;;13.07;6.13;;;;;;;10.98;100.00;100403.69;6182374;23;20025;-93
2023/01/02 06:26:51;;;;;;;7.95;5.18;;;;;;;10.68;100.00;100347.75;6156982;23;20009;-94
2023/01/02 06:29:36;;;;;;;13.25;5.30;;;;;;;11.07;100.00;100410.31;6151751;23;20034;-94
2023/01/02 06:32:19;;;;;;;10.13;4.97;;;;;;;11.09;100.00;100421.72;6151423;23;20033;-95
2023/01/02 06:34:54;;;;;;;10.35;5.28;;;;;;;11.10;100.00;100411.03;6151342;23;20165;-95
2023/01/02 06:37:45;;;;;;;14.80;5.07;;;;;;;11.15;100.00;100418.78;6144652;23;20093;-94
2023/01/02 06:40:37;;;;;;;8.65;4.68;;;;;;;11.16;100.00;100418.72;6138231;23;20033;-95
2023/01/02 06:43:34;;;;;;;10.00;6.00;;;;;;;10.66;100.00;100339.03;6134035;23;20141;-95
2023/01/02 06:46:21;;;;;;;10.48;4.97;;;;;;;10.79;100.00;100358.69;6132461;23;20026;-96
2023/01/02 06:49:23;;;;;;;9.15;4.97;;;;;;;11.25;100.00;100425.34;6130727;23;20026;-94
2023/01/02 06:52:09;;;;;;;9.02;5.03;;;;;;;11.26;100.00;100429.69;6130807;23;20022;-92
2023/01/02 06:54:43;;;;;;;10.82;4.70;;;;;;;10.83;100.00;100357.63;6132081;23;20049;-92
2023/01/02 06:57:17;;;;;;;8.60;4.80;;;;;;;11.18;100.00;100413.31;6129216;23;20109;-92
2023/01/02 06:59:58;;;;;;;;;;;;;;;11.34;100.00;100424.00;6109685;23;20021;-95
2023/01/02 07:03:03;;;;;;;7.68;4.40;;;;;;;11.38;100.00;100426.44;6131122;23;19924;-94
2023/01/02 07:05:52;;;;;;;9.00;4.28;;;;;;;11.23;100.00;100390.09;6129550;23;20025;-93
2023/01/02 07:08:43;;;;;;;11.73;4.28;;;;;;;11.55;100.00;100431.75;6130672;23;20033;-94
2023/01/02 07:11:31;;;;;;;11.13;4.32;;;;;;;11.59;100.00;100417.41;6128404;23;20026;-93
2023/01/02 07:14:41;;;;;;;11.88;3.90;;;;;;;11.55;100.00;100407.03;6128259;23;20018;-93
2023/01/02 07:17:25;;;;;;;8.60;3.60;;;;;;;11.50;100.00;100366.63;6125181;23;20026;-95
2023/01/02 07:20:14;;;;;;;7.88;3.63;;;;;;;11.68;100.00;100389.53;6148910;23;20128;-94
2023/01/02 07:23:16;;;;;;;7.18;3.83;;;;;;;11.63;100.00;100370.38;6135758;23;20018;-93
2023/01/02 07:26:06;;;;;;;10.30;3.72;;;;;;;11.85;100.00;100418.75;6158019;23;20022;-94
2023/01/02 07:29:07;;;;;;;8.32;3.95;;;;;;;11.53;100.00;100366.47;6173339;23;20009;-95
2023/01/02 07:32:03;;;;;;;8.75;3.80;;;;;;;11.47;100.00;100348.25;6182030;23;20097;-94
2023/01/02 07:35:09;;;;;;;9.20;3.70;;;;;;;11.47;99.59;100335.84;6165735;23;20081;-93
2023/01/02 07:37:58;;;;;;;6.60;3.35;;;;;;;11.97;99.94;100409.28;6180044;23;20029;-93
2023/01/02 07:40:40;;;;;;;12.20;3.47;;;;;;;11.98;96.24;100380.97;6180837;23;20036;-95
2023/01/02 07:43:29;;;;;;;7.20;3.75;;;;;;;11.54;96.05;100305.41;6177920;23;20033;-93
2023/01/02 07:46:11;;;;;;;7.97;3.70;;;;;;;11.80;95.64;100340.34;6158411;23;20058;-93
2023/01/02 07:48:58;;;;;;;9.70;3.38;;;;;;;12.02;94.45;100375.41;6181055;23;20029;-94
2023/01/02 07:52:10;;;;;;;7.97;3.30;;;;;;;11.73;94.30;100336.25;6170943;23;20065;-92
2023/01/02 07:54:37;;;;;;;8.48;3.50;;;;;;;11.68;94.02;100340.94;6163776;23;20014;-94
2023/01/02 07:57:42;;;;;;;6.00;3.00;;;;;;;12.08;93.79;100414.06;6165233;23;20026;-93
2023/01/02 08:00:50;;;;;;;7.18;3.47;;;;;;;12.21;92.08;100431.91;6164719;23;20022;-93
2023/01/02 08:03:56;;;;;;;8.38;3.58;;;;;;;12.22;92.43;100428.31;6167046;23;20068;-94
2023/01/02 08:06:25;;;;;;;10.23;3.42;;;;;;;12.21;92.07;100425.72;6172842;23;20021;-93
2023/01/02 08:12:18;;;;;;;9.95;3.22;;;;;;;12.28;90.78;100446.56;6182655;23;20020;-94
2023/01/02 08:14:59;;;;;;;9.43;3.22;;;;;;;12.30;90.41;100438.50;6181852;23;20013;-92
2023/01/02 08:17:51;;;;;;;8.45;3.35;;;;;;;12.23;89.50;100429.16;6182008;23;20021;-93
2023/01/02 08:20:20;;;;;;;6.22;2.90;;;;;;;12.29;88.21;100440.31;6182301;23;20017;-93
2023/01/02 08:23:11;;;;;;;8.25;3.55;;;;;;;12.40;87.49;100445.06;6181560;23;20040;-93
2023/01/02 08:25:59;;;;;;;7.97;3.13;;;;;;;12.40;86.44;100437.09;6178902;23;20028;-93
2023/01/02 08:28:46;;;;;;;7.65;3.20;;;;;;;12.50;86.46;100450.72;6180684;23;20065;-92
2023/01/02 08:31:34;;;;;;;6.28;3.00;;;;;;;12.13;85.82;100386.31;6178885;23;20010;-93
2023/01/02 08:34:16;;;;;;;13.15;3.63;;;;;;;12.20;84.67;100402.78;6195697;23;20040;-95
2023/01/02 08:36:58;;;;;;;9.93;3.42;;;;;;;12.56;84.34;100480.47;6177607;23;20154;-93
2023/01/02 08:40:16;;;;;;;10.10;3.03;;;;;;;12.62;83.17;100484.59;6168463;23;20021;-93
2023/01/02 08:43:07;;;;;;;6.90;2.88;;;;;;;12.18;82.52;100399.34;6169613;23;20033;-93
2023/01/02 08:46:08;;;;;;;9.50;3.00;;;;;;;12.44;81.94;100437.75;6175110;23;20029;-94
2023/01/02 08:48:57;;;;;;;8.48;3.17;;;;;;;12.78;81.58;100495.25;6201728;23;20097;-93
2023/01/02 08:51:45;;;;;;;8.13;3.17;;;;;;;12.79;82.57;100492.50;6203194;23;20329;-93
2023/01/02 08:58:08;;;;;;;10.50;3.92;;;;;;;12.49;88.34;100478.22;6182310;23;20461;-92
2023/01/02 09:01:14;;;;;;;11.20;3.85;;;;;;;12.48;90.13;100508.38;6196566;23;20321;-95
2023/01/02 09:03:59;;;;;;;11.85;3.88;;;;;;;12.14;91.20;100467.66;6174336;23;20021;-93
2023/01/02 09:06:45;;;;;;;11.50;4.70;;;;;;;12.08;92.43;100473.31;6174992;23;20021;-93
2023/01/02 09:10:04;;;;;;;13.38;5.22;;;;;;;12.27;93.48;100510.38;6203773;23;20051;-94
2023/01/02 09:13:01;;;;;;;13.02;5.18;;;;;;;12.15;94.25;100492.41;6193517;23;20036;-94
2023/01/02 09:15:49;;;;;;;19.17;4.63;;;;;;;12.02;93.46;100467.44;6206668;23;20017;-93
2023/01/02 09:18:35;;;;;;;12.98;4.53;;;;;;;11.99;91.59;100460.50;6161131;23;20013;-93
2023/01/02 09:21:25;;;;;;;12.55;4.50;;;;;;;12.45;90.34;100533.28;6209012;23;20005;-94
2023/01/02 09:27:25;;;;;;;14.15;4.72;;;;;;;12.03;87.88;100448.78;6128934;23;20034;-93
2023/01/02 09:30:07;;;;;;;13.25;4.57;;;;;;;12.33;87.93;100490.59;6151356;23;20014;-93
2023/01/02 09:33:12;;;;;;;36.75;6.22;;;;;;;12.38;86.43;100480.59;6164417;23;20023;-93
2023/01/02 09:35:43;;;;;;;13.75;4.30;;;;;;;12.60;84.30;100513.03;6210540;23;20017;-91
2023/01/02 09:38:13;;;;;;;8.15;3.70;;;;;;;12.85;82.88;100540.03;6209729;23;20005;-93
2023/01/02 09:40:55;;;;;;;11.70;4.50;;;;;;;12.86;83.26;100535.56;6211930;23;20109;-93
2023/01/02 09:43:48;;;;;;;11.00;4.03;;;;;;;12.96;82.75;100536.78;6149784;23;20022;-92
2023/01/02 09:47:12;;;;;;;14.50;3.92;;;;;;;13.03;79.92;100542.63;6149226;23;20049;-92
2023/01/02 09:49:59;;;;;;;9.77;3.45;;;;;;;13.06;80.34;100543.31;6141638;23;20034;-94
2023/01/02 09:52:47;;;;;;;11.85;3.28;;;;;;;12.85;81.81;100502.81;6147953;23;20571;-92
2023/01/02 09:55:25;;;;;;;14.00;3.35;;;;;;;13.10;79.81;100555.47;6121162;23;20022;-94
2023/01/02 09:58:40;;;;;;;15.77;4.43;;;;;;;13.14;79.66;100567.66;6143803;23;20049;-92
2023/01/02 10:01:48;;;;;;;13.05;3.30;;;;;;;13.19;78.13;100562.16;6135273;23;20018;-93
2023/01/02 10:05:04;;;;;;;12.10;3.42;;;;;;;13.24;77.41;100568.91;6137730;23;20010;-91
2023/01/02 10:08:36;;;;;;;11.55;3.65;;;;;;;13.27;76.83;100568.75;6138048;23;20117;-94
2023/01/02 10:11:52;;;;;;;10.30;2.75;;;;;;;13.15;77.22;100542.84;6134835;23;20030;-93
2023/01/02 10:15:01;;;;;;;13.73;3.10;;;;;;;13.37;78.88;100570.91;6147881;23;20022;-93
2023/01/02 10:17:36;;;;;;;12.45;3.90;;;;;;;13.27;79.13;100554.59;6111453;23;20466;-93
2023/01/02 10:20:26;;;;;;;8.15;2.65;;;;;;;13.25;80.64;100552.00;6116177;23;20026;-92
2023/01/02 10:23:09;;;;;;;10.02;2.97;;;;;;;13.28;83.22;100559.81;6136464;23;20025;-92
2023/01/02 10:25:54;;;;;;;12.10;3.25;;;;;;;13.34;87.41;100569.28;6133573;23;20020;-93
2023/01/02 10:29:06;;;;;;;20.67;3.67;;;;;;;13.36;91.27;100562.06;6183185;23;20017;-93
2023/01/02 10:32:02;;;;;;;11.25;3.20;;;;;;;13.39;89.92;100561.88;6191598;23;20079;-93
2023/01/02 10:34:58;;;;;;;12.77;3.70;;;;;;;13.16;89.09;100530.41;6191446;23;20106;-93
2023/01/02 10:37:26;;;;;;;13.73;3.33;;;;;;;13.24;87.76;100541.44;6193556;23;20076;-92
2023/01/02 10:40:07;;;;;;;12.13;2.63;;;;;;;13.32;87.13;100549.88;6191565;23;20021;-92
2023/01/02 10:42:51;;;;;;;15.95;3.47;;;;;;;13.36;86.49;100566.53;6188999;23;20021;-93
2023/01/02 10:45:30;;;;;;;10.93;3.78;;;;;;;13.36;87.69;100566.53;6189375;23;20120;-92
2023/01/02 10:48:11;;;;;;;16.73;4.35;;;;;;;13.34;88.25;100570.13;6189982;23;20516;-92
2023/01/02 10:51:01;;;;;;;13.73;2.78;;;;;;;13.32;88.46;100580.00;6188114;23;20032;-94
2023/01/02 10:53:57;;;;;;;12.60;3.10;;;;;;;13.30;88.57;100573.91;6191880;23;20333;-94
2023/01/02 10:56:49;;;;;;;11.35;2.65;;;;;;;13.27;87.47;100581.19;6189582;23;20101;-92
2023/01/02 10:59:33;;;;;;;11.57;3.22;;;;;;;13.19;88.06;100563.00;6185548;23;20045;-93
2023/01/02 11:02:37;;;;;;;13.80;2.90;;;;;;;13.19;88.76;100570.97;6181869;23;20036;-95
2023/01/02 11:05:51;;;;;;;10.48;2.85;;;;;;;13.10;89.32;100557.28;6193774;23;20685;-94
2023/01/02 11:08:39;;;;;;;11.52;2.63;;;;;;;13.22;89.76;100578.75;6192862;23;20621;-94
2023/01/02 11:11:46;;;;;;;15.48;3.13;;;;;;;13.26;91.17;100590.09;6193723;23;20096;-91
2023/01/02 11:14:34;;;;;;;9.05;2.92;;;;;;;13.22;93.00;100586.75;6192124;23;20017;-94
2023/01/02 11:17:28;;;;;;;10.98;3.30;;;;;;;13.16;94.79;100580.91;6189244;23;20024;-92
2023/01/02 11:20:39;;;;;;;9.30;3.05;;;;;;;12.91;97.84;100576.88;6192698;23;20024;-92
2023/01/02 11:23:23;;;;;;;8.52;3.42;;;;;;;12.75;99.94;100560.03;6168161;23;20024;-93
2023/01/02 11:25:58;;;;;;;11.80;4.13;;;;;;;12.82;100.00;100596.00;6209755;23;20056;-93
2023/01/02 11:28:45;;;;;;;9.68;3.38;;;;;;;12.59;100.00;100577.75;6208994;23;20438;-92
2023/01/02 11:31:59;;;;;;;11.55;3.55;;;;;;;12.70;100.00;100606.41;6200361;23;20028;-93
2023/01/02 11:34:59;;;;;;;15.60;3.85;;;;;;;12.66;100.00;100592.41;6207935;23;20021;-93
2023/01/02 11:38:21;;;;;;;11.30;3.53;;;;;;;12.68;100.00;100595.84;6211136;23;20024;-93
2023/01/02 11:43:47;;;;;;;10.25;3.83;;;;;;;12.65;100.00;100596.00;6193815;23;20059;-92
2023/01/02 11:45:00;;;;;;;10.80;3.97;;;;;;;12.70;100.00;100583.34;6187750;23;20096;-92
2023/01/02 11:47:59;;;;;;;17.75;4.57;;;;;;;12.68;100.00;100587.88;6185505;23;20033;-93
2023/01/02 11:50:44;;;;;;;13.00;4.53;;;;;;;12.06;100.00;100501.72;6178671;23;20088;-93
2023/01/02 11:53:31;;;;;;;14.80;3.78;;;;;;;12.29;100.00;100551.81;6188959;23;20056;-93
2023/01/02 11:56:45;;;;;;;13.57;3.42;;;;;;;12.48;100.00;100598.69;6191069;23;20024;-94
2023/01/02 12:00:08;;;;;;;13.65;4.07;;;;;;;12.47;100.00;100591.66;6185301;23;20461;-92
2023/01/02 12:03:47;;;;;;;9.70;3.50;;;;;;;12.18;100.00;100554.19;6157564;23;20073;-93
2023/01/02 12:07:08;;;;;;;10.73;4.18;;;;;;;12.25;100.00;100557.41;6182426;23;20025;-93
2023/01/02 12:10:47;;;;;;;13.93;3.55;;;;;;;12.19;100.00;100557.69;6192691;23;20028;-93
2023/01/02 12:14:33;;;;;;;10.77;3.13;;;;;;;12.52;100.00;100616.19;6192554;23;20087;-92
2023/01/02 12:17:53;;;;;;;8.25;3.40;;;;;;;12.44;100.00;100615.69;6201297;23;20028;-94
2023/01/02 12:20:59;;;;;;;11.15;3.40;;;;;;;12.12;100.00;100566.91;6204722;23;20029;-92
2023/01/02 12:23:55;;;;;;;9.65;3.65;;;;;;;12.20;100.00;100573.53;6207864;23;20036;-94
2023/01/02 12:26:51;;;;;;;10.98;3.83;;;;;;;12.32;100.00;100592.44;6194563;23;20021;-93
2023/01/02 12:29:44;;;;;;;8.40;3.63;;;;;;;12.39;100.00;100615.97;6199712;23;20028;-92
2023/01/02 12:33:25;;;;;;;10.98;3.65;;;;;;;12.40;100.00;100619.47;6205427;23;20032;-91
2023/01/02 12:35:58;;;;;;;12.85;3.65;;;;;;;12.35;100.00;100614.38;6125740;23;20043;-92
2023/01/02 12:39:03;;;;;;;12.48;3.83;;;;;;;12.17;100.00;100594.06;6207611;23;20031;-94
2023/01/02 12:42:08;;;;;;;11.95;3.40;;;;;;;12.30;100.00;100624.38;6152773;23;20040;-92
2023/01/02 12:45:10;;;;;;;7.70;3.17;;;;;;;12.34;100.00;100627.75;6208363;23;20017;-91
2023/01/02 12:48:18;;;;;;;10.82;3.58;;;;;;;12.15;100.00;100596.81;6206553;23;20032;-92
2023/01/02 12:51:18;;;;;;;8.73;3.80;;;;;;;12.30;100.00;100630.53;6208632;23;20043;-91
2023/01/02 12:54:28;;;;;;;11.48;4.03;;;;;;;12.14;100.00;100603.03;6203536;23;20048;-92
2023/01/02 12:57:42;;;;;;;12.98;3.83;;;;;;;12.33;100.00;100634.00;6157568;23;20031;-91
2023/01/02 13:01:00;;;;;;;12.18;3.95;;;;;;;12.34;100.00;100646.34;6199363;23;20073;-90
2023/01/02 13:03:40;;;;;;;8.27;3.90;;;;;;;12.31;100.00;100639.38;6184535;23;20020;-91
2023/01/02 13:06:44;;;;;;;12.93;4.30;;;;;;;12.30;100.00;100641.16;6200806;23;20048;-91
2023/01/02 13:10:03;;;;;;;9.98;4.38;;;;;;;12.25;100.00;100645.88;6195843;23;20021;-92
2023/01/02 13:12:39;;;;;;;13.38;4.18;;;;;;;12.08;100.00;100624.59;6201729;23;20005;-93
2023/01/02 13:15:21;;;;;;;10.53;4.07;;;;;;;12.20;100.00;100645.22;6203450;23;20017;-92
2023/01/02 13:17:51;;;;;;;9.73;3.83;;;;;;;12.17;100.00;100642.72;6200186;23;20052;-92
2023/01/02 13:20:29;;;;;;;8.45;4.10;;;;;;;12.04;100.00;100623.03;6203866;23;20029;-93
2023/01/02 13:23:22;;;;;;;;;;;;;;;12.16;100.00;100646.31;6208275;23;20032;-94
2023/01/02 13:26:12;;;;;;;9.30;4.18;;;;;;;12.13;100.00;100633.19;6196765;23;19923;-93
2023/01/02 13:28:58;;;;;;;14.23;4.38;;;;;;;12.11;100.00;100631.56;6189931;23;20036;-93
2023/01/02 13:31:35;;;;;;;12.13;4.03;;;;;;;12.14;100.00;100637.56;6192467;23;20017;-93
2023/01/02 13:34:36;;;;;;;8.90;3.83;;;;;;;12.04;100.00;100625.69;6193982;23;20028;-93